Time;durP1;ratioP1;P1;durP2;ratioP2;P2;SDS_P1;SDS_P2;PMS_P1;PMS_P2;Temp;Humidity;BMP_temperature;BMP_pressure;BME280_temperature;BME280_humidity;BME280_pressure;Samples;Min_cycle;Max_cycle;Signal;HPM_P1;HPM_P2
2022/07/03 00:00:35;;;;;;;10.23;3.50;;;;;;;;;;6149843;23;20053;-54
2022/07/03 00:03:02;;;;;;;9.85;4.18;;;;;;;;;;6150434;23;20025;-53
2022/07/03 00:05:30;;;;;;;13.63;3.92;;;;;;;;;;6150257;23;20029;-52
2022/07/03 00:07:57;;;;;;;11.15;4.68;;;;;;;;;;6148223;23;20022;-52
2022/07/03 00:10:25;;;;;;;11.75;4.00;;;;;;;;;;6148444;23;20044;-55
2022/07/03 00:12:52;;;;;;;14.15;3.95;;;;;;;;;;6149851;23;20037;-56
2022/07/03 00:15:19;;;;;;;18.20;3.95;;;;;;;;;;6148152;23;20025;-57
2022/07/03 00:17:47;;;;;;;10.27;4.30;;;;;;;;;;6148197;23;20490;-54
2022/07/03 00:20:14;;;;;;;11.38;4.15;;;;;;;;;;6149915;23;20029;-56
2022/07/03 00:22:43;;;;;;;12.60;4.03;;;;;;;;;;6150449;23;20395;-55
2022/07/03 00:25:12;;;;;;;7.15;3.40;;;;;;;;;;6148781;23;20052;-52
2022/07/03 00:27:40;;;;;;;15.88;3.78;;;;;;;;;;6150379;23;20025;-52
2022/07/03 00:30:08;;;;;;;13.23;3.95;;;;;;;;;;6150202;23;20030;-56
2022/07/03 00:32:38;;;;;;;15.13;3.90;;;;;;;;;;6150490;23;20505;-56
2022/07/03 00:35:05;;;;;;;16.27;3.45;;;;;;;;;;6149257;23;20018;-55
2022/07/03 00:37:32;;;;;;;;;;;;;;;;;;6147326;23;20025;-55
2022/07/03 00:40:00;;;;;;;9.35;3.80;;;;;;;;;;6150123;23;19923;-56
2022/07/03 00:42:27;;;;;;;;;;;;;;;;;;6150767;23;20044;-57
2022/07/03 00:44:56;;;;;;;13.70;4.68;;;;;;;;;;6150024;23;19921;-56
2022/07/03 00:47:25;;;;;;;13.18;3.88;;;;;;;;;;6149314;23;20080;-45
2022/07/03 00:49:53;;;;;;;16.77;4.05;;;;;;;;;;6149562;23;20029;-52
2022/07/03 00:52:21;;;;;;;12.60;4.00;;;;;;;;;;6150177;23;20029;-50
2022/07/03 00:54:53;;;;;;;12.93;3.50;;;;;;;;;;6148705;23;20025;-50
2022/07/03 00:57:21;;;;;;;12.30;3.92;;;;;;;;;;6149646;23;20052;-51
2022/07/03 00:59:48;;;;;;;18.08;4.07;;;;;;;;;;6147793;23;20025;-54
2022/07/03 01:02:31;;;;;;;13.95;4.30;;;;;;;;;;6149160;23;20056;-50
2022/07/03 01:05:07;;;;;;;14.45;4.20;;;;;;;;;;6149605;23;20021;-50
2022/07/03 01:07:41;;;;;;;14.40;4.43;;;;;;;;;;6149159;23;20836;-50
2022/07/03 01:10:13;;;;;;;12.95;4.15;;;;;;;;;;6147991;23;20025;-48
2022/07/03 01:12:43;;;;;;;10.63;4.30;;;;;;;;;;6150434;23;20026;-46
2022/07/03 01:15:12;;;;;;;14.60;4.57;;;;;;;;;;6148074;23;20029;-47
2022/07/03 01:17:40;;;;;;;16.65;4.35;;;;;;;;;;6149682;23;20861;-48
2022/07/03 01:20:08;;;;;;;11.73;4.47;;;;;;;;;;6147980;23;20025;-51
2022/07/03 01:22:45;;;;;;;9.20;3.90;;;;;;;;;;6149914;23;20025;-54
2022/07/03 01:25:12;;;;;;;14.27;4.13;;;;;;;;;;6149308;23;20033;-51
2022/07/03 01:28:00;;;;;;;9.43;4.18;;;;;;;;;;6148734;23;20069;-55
2022/07/03 01:30:29;;;;;;;15.65;4.32;;;;;;;;;;6149270;23;20025;-56
2022/07/03 01:33:02;;;;;;;15.80;4.68;;;;;;;;;;6148699;23;20063;-57
2022/07/03 01:35:34;;;;;;;17.60;4.60;;;;;;;;;;6148115;23;20466;-54
2022/07/03 01:38:05;;;;;;;8.63;4.13;;;;;;;;;;6149550;23;20026;-57
2022/07/03 01:40:34;;;;;;;8.40;3.88;;;;;;;;;;6148806;23;20032;-56
2022/07/03 01:43:03;;;;;;;7.53;4.32;;;;;;;;;;6149179;23;20029;-57
2022/07/03 01:45:31;;;;;;;14.88;4.25;;;;;;;;;;6149305;23;20029;-47
2022/07/03 01:47:58;;;;;;;16.17;4.72;;;;;;;;;;6148076;23;20092;-49
2022/07/03 01:50:26;;;;;;;13.27;4.20;;;;;;;;;;6149356;23;20026;-49
2022/07/03 01:52:53;;;;;;;;;;;;;;;;;;6148121;23;20076;-47
2022/07/03 01:55:21;;;;;;;11.25;3.95;;;;;;;;;;6149569;23;19920;-48
2022/07/03 01:57:49;;;;;;;11.32;4.13;;;;;;;;;;6148721;23;20033;-50
2022/07/03 02:00:18;;;;;;;9.35;4.28;;;;;;;;;;6149243;23;20079;-53
2022/07/03 02:02:59;;;;;;;12.25;4.65;;;;;;;;;;6149241;23;20025;-55
2022/07/03 02:05:35;;;;;;;16.40;4.55;;;;;;;;;;6149023;23;20022;-53
2022/07/03 02:08:20;;;;;;;18.05;4.68;;;;;;;;;;6149043;23;20033;-55
2022/07/03 02:10:52;;;;;;;13.25;4.47;;;;;;;;;;6148732;23;20021;-56
2022/07/03 02:13:22;;;;;;;18.95;4.60;;;;;;;;;;6148718;23;20473;-55
2022/07/03 02:15:51;;;;;;;16.40;4.10;;;;;;;;;;6149480;23;20084;-55
2022/07/03 02:18:27;;;;;;;11.10;4.60;;;;;;;;;;6147659;23;20029;-54
2022/07/03 02:21:14;;;;;;;12.40;4.22;;;;;;;;;;6148742;23;20018;-53
2022/07/03 02:24:04;;;;;;;15.93;4.32;;;;;;;;;;6148318;23;20736;-56
2022/07/03 02:26:39;;;;;;;9.35;3.70;;;;;;;;;;6142213;23;20076;-55
2022/07/03 02:29:09;;;;;;;12.30;3.90;;;;;;;;;;6148831;23;20021;-57
2022/07/03 02:31:46;;;;;;;10.57;3.70;;;;;;;;;;6147944;23;20030;-58
2022/07/03 02:34:16;;;;;;;9.95;3.88;;;;;;;;;;6149174;23;20076;-58
2022/07/03 02:36:48;;;;;;;13.57;4.53;;;;;;;;;;6146870;23;20061;-59
2022/07/03 02:39:20;;;;;;;13.95;4.30;;;;;;;;;;6149969;23;20365;-59
2022/07/03 02:41:52;;;;;;;8.32;4.10;;;;;;;;;;6147493;23;20542;-56
2022/07/03 02:44:46;;;;;;;11.82;3.90;;;;;;;;;;6149255;23;20022;-50
2022/07/03 02:47:46;;;;;;;10.18;3.83;;;;;;;;;;6144860;23;20130;-52
2022/07/03 02:50:13;;;;;;;;;;;;;;;;;;6099827;23;20061;-53
2022/07/03 02:52:41;;;;;;;6.15;3.45;;;;;;;;;;6149077;23;19924;-57
2022/07/03 02:55:17;;;;;;;14.27;3.55;;;;;;;;;;6148289;23;20025;-54
2022/07/03 02:57:47;;;;;;;6.70;3.50;;;;;;;;;;6148038;23;20383;-56
2022/07/03 03:00:15;;;;;;;12.50;3.90;;;;;;;;;;6147454;23;20352;-54
2022/07/03 03:02:55;;;;;;;10.10;3.10;;;;;;;;;;6148403;23;20108;-57
2022/07/03 03:05:43;;;;;;;8.18;3.05;;;;;;;;;;6148745;23;20540;-53
2022/07/03 03:08:13;;;;;;;11.15;3.15;;;;;;;;;;6148046;23;20757;-54
2022/07/03 03:10:41;;;;;;;11.18;3.35;;;;;;;;;;6149099;23;20399;-56
2022/07/03 03:13:09;;;;;;;9.90;3.33;;;;;;;;;;6149097;23;20060;-57
2022/07/03 03:15:37;;;;;;;5.97;2.80;;;;;;;;;;6148166;23;20080;-55
2022/07/03 03:18:07;;;;;;;10.43;2.70;;;;;;;;;;6147624;23;20104;-54
2022/07/03 03:20:36;;;;;;;5.65;2.88;;;;;;;;;;6148623;23;20025;-53
2022/07/03 03:23:22;;;;;;;7.95;2.90;;;;;;;;;;6148507;23;20030;-54
2022/07/03 03:25:51;;;;;;;6.63;2.92;;;;;;;;;;6149269;23;20153;-54
2022/07/03 03:28:18;;;;;;;7.55;2.42;;;;;;;;;;6147864;23;20049;-57
2022/07/03 03:30:45;;;;;;;9.38;2.67;;;;;;;;;;6148018;23;20521;-55
2022/07/03 03:33:13;;;;;;;8.68;2.53;;;;;;;;;;6148896;23;20093;-55
2022/07/03 03:35:41;;;;;;;;;;;;;;;;;;6148637;23;20561;-58
2022/07/03 03:38:08;;;;;;;7.93;2.17;;;;;;;;;;6148161;23;19925;-56
2022/07/03 03:40:35;;;;;;;7.68;2.30;;;;;;;;;;6149504;23;20025;-57
2022/07/03 03:43:03;;;;;;;8.52;2.40;;;;;;;;;;6149123;23;20546;-57
2022/07/03 03:45:31;;;;;;;10.65;2.25;;;;;;;;;;6149673;23;20029;-57
2022/07/03 03:47:58;;;;;;;6.93;1.95;;;;;;;;;;6147042;23;20029;-58
2022/07/03 03:50:25;;;;;;;4.68;2.00;;;;;;;;;;6148254;23;20407;-57
2022/07/03 03:52:52;;;;;;;7.05;2.22;;;;;;;;;;6147837;23;20044;-54
2022/07/03 03:55:20;;;;;;;8.13;2.05;;;;;;;;;;6148006;23;20026;-57
2022/07/03 03:57:47;;;;;;;4.72;2.00;;;;;;;;;;6147694;23;20095;-54
2022/07/03 04:00:15;;;;;;;8.73;2.13;;;;;;;;;;6148295;23;20084;-56
2022/07/03 04:02:42;;;;;;;;;;;;;;;;;;6148427;23;20026;-55
2022/07/03 04:05:09;;;;;;;8.35;2.03;;;;;;;;;;6148625;23;19921;-54
2022/07/03 04:07:37;;;;;;;6.57;1.98;;;;;;;;;;6148898;23;20463;-55
2022/07/03 04:10:04;;;;;;;6.20;2.00;;;;;;;;;;6150573;23;20025;-53
2022/07/03 04:12:31;;;;;;;6.07;1.90;;;;;;;;;;6151188;23;20025;-55
2022/07/03 04:14:59;;;;;;;11.38;2.33;;;;;;;;;;6151617;23;20033;-49
2022/07/03 04:17:26;;;;;;;6.43;1.90;;;;;;;;;;6150821;23;20032;-54
2022/07/03 04:19:54;;;;;;;6.25;2.30;;;;;;;;;;6150854;23;20029;-53
2022/07/03 04:22:21;;;;;;;4.10;1.70;;;;;;;;;;6150350;23;20080;-55
2022/07/03 04:24:48;;;;;;;5.60;1.95;;;;;;;;;;6150459;23;20064;-52
2022/07/03 04:27:15;;;;;;;5.30;1.88;;;;;;;;;;6149626;23;20068;-54
2022/07/03 04:29:43;;;;;;;8.95;2.15;;;;;;;;;;6150039;23;20025;-53
2022/07/03 04:32:10;;;;;;;9.07;2.20;;;;;;;;;;6150511;23;20029;-55
2022/07/03 04:34:38;;;;;;;11.93;2.30;;;;;;;;;;6151289;23;20332;-54
2022/07/03 04:37:05;;;;;;;6.47;2.60;;;;;;;;;;6149100;23;20025;-52
2022/07/03 04:39:32;;;;;;;10.27;2.22;;;;;;;;;;6151628;23;20021;-52
2022/07/03 04:42:00;;;;;;;4.88;2.03;;;;;;;;;;6149024;23;20032;-52
2022/07/03 04:44:27;;;;;;;7.93;2.22;;;;;;;;;;6151543;23;20025;-53
2022/07/03 04:46:54;;;;;;;6.38;2.15;;;;;;;;;;6149311;23;20470;-53
2022/07/03 04:49:22;;;;;;;6.72;2.33;;;;;;;;;;6150230;23;20030;-52
2022/07/03 04:51:49;;;;;;;3.67;2.00;;;;;;;;;;6123530;23;20025;-56
2022/07/03 04:54:16;;;;;;;7.40;2.20;;;;;;;;;;6150004;23;20029;-55
2022/07/03 04:56:44;;;;;;;7.20;1.70;;;;;;;;;;6151642;23;20060;-51
2022/07/03 04:59:11;;;;;;;8.00;1.80;;;;;;;;;;6150230;23;20092;-48
2022/07/03 05:01:38;;;;;;;9.32;2.30;;;;;;;;;;6149958;23;20032;-51
2022/07/03 05:04:06;;;;;;;8.77;1.70;;;;;;;;;;6149595;23;20061;-51
2022/07/03 05:06:33;;;;;;;5.28;2.10;;;;;;;;;;6150729;23;20025;-47
2022/07/03 05:09:00;;;;;;;5.97;1.98;;;;;;;;;;6149848;23;20475;-51
2022/07/03 05:11:27;;;;;;;5.95;2.28;;;;;;;;;;6150427;23;20085;-53
2022/07/03 05:13:55;;;;;;;5.93;2.00;;;;;;;;;;6147726;23;20080;-52
2022/07/03 05:16:22;;;;;;;6.80;1.98;;;;;;;;;;6149910;23;20060;-55
2022/07/03 05:18:49;;;;;;;7.78;1.90;;;;;;;;;;6150356;23;20037;-56
2022/07/03 05:21:16;;;;;;;7.50;1.73;;;;;;;;;;6150992;23;20083;-56
2022/07/03 05:23:44;;;;;;;5.57;2.00;;;;;;;;;;6149191;23;20033;-57
2022/07/03 05:26:11;;;;;;;4.38;1.80;;;;;;;;;;6150368;23;20064;-57
2022/07/03 05:28:38;;;;;;;7.95;2.00;;;;;;;;;;6150210;23;20025;-57
2022/07/03 05:31:06;;;;;;;5.07;1.85;;;;;;;;;;6150168;23;20455;-48
2022/07/03 05:33:33;;;;;;;6.45;1.90;;;;;;;;;;6148569;23;20084;-50
2022/07/03 05:36:00;;;;;;;6.35;2.28;;;;;;;;;;6150306;23;20022;-49
2022/07/03 05:41:14;;;;;;;6.53;1.88;;;;;;;;;;6150659;23;20034;-52
2022/07/03 05:43:41;;;;;;;8.82;1.90;;;;;;;;;;6148028;23;20025;-47
2022/07/03 05:46:08;;;;;;;5.40;1.88;;;;;;;;;;6150201;23;20080;-48
2022/07/03 05:48:36;;;;;;;6.07;1.80;;;;;;;;;;6150550;23;20526;-53
2022/07/03 05:51:03;;;;;;;5.50;1.90;;;;;;;;;;6149585;23;20021;-55
2022/07/03 05:53:30;;;;;;;3.17;1.65;;;;;;;;;;6147532;23;20080;-52
2022/07/03 05:55:58;;;;;;;5.03;1.70;;;;;;;;;;6150052;23;20073;-53
2022/07/03 05:58:25;;;;;;;7.53;1.77;;;;;;;;;;6151084;23;20022;-54
2022/07/03 06:00:53;;;;;;;5.57;1.75;;;;;;;;;;6151630;23;20026;-51
2022/07/03 06:03:20;;;;;;;4.63;1.50;;;;;;;;;;6149912;23;20025;-49
2022/07/03 06:05:47;;;;;;;4.13;1.45;;;;;;;;;;6150866;23;20022;-53
2022/07/03 06:08:15;;;;;;;4.70;1.55;;;;;;;;;;6150670;23;20471;-56
2022/07/03 06:10:42;;;;;;;4.05;1.88;;;;;;;;;;6123531;23;20033;-47
2022/07/03 06:13:09;;;;;;;6.22;1.90;;;;;;;;;;6148314;23;20100;-45
2022/07/03 06:15:36;;;;;;;3.63;1.60;;;;;;;;;;6150118;23;20029;-50
2022/07/03 06:18:04;;;;;;;3.25;1.42;;;;;;;;;;6149446;23;20025;-47
2022/07/03 06:20:31;;;;;;;4.00;1.42;;;;;;;;;;6148492;23;20367;-52
2022/07/03 06:22:58;;;;;;;11.68;1.60;;;;;;;;;;6148617;23;20153;-48
2022/07/03 06:25:25;;;;;;;7.32;2.03;;;;;;;;;;6150429;23;20028;-45
2022/07/03 06:27:53;;;;;;;3.03;1.58;;;;;;;;;;6149569;23;20032;-52
2022/07/03 06:30:20;;;;;;;4.43;1.55;;;;;;;;;;6149534;23;20088;-50
2022/07/03 06:32:47;;;;;;;4.03;1.55;;;;;;;;;;6147518;23;20030;-45
2022/07/03 06:35:15;;;;;;;2.33;1.80;;;;;;;;;;6150083;23;20025;-45
2022/07/03 06:37:42;;;;;;;12.23;2.70;;;;;;;;;;6148588;23;20415;-45
2022/07/03 06:40:09;;;;;;;7.20;1.67;;;;;;;;;;6148094;23;20061;-49
2022/07/03 06:42:37;;;;;;;8.00;1.83;;;;;;;;;;6148826;23;20553;-51
2022/07/03 06:45:05;;;;;;;7.47;1.80;;;;;;;;;;6149851;23;20084;-48
2022/07/03 06:47:32;;;;;;;;;;;;;;;;;;6150028;23;20025;-49
2022/07/03 06:49:59;;;;;;;7.68;2.17;;;;;;;;;;6148765;23;19983;-56
2022/07/03 06:52:27;;;;;;;8.30;2.10;;;;;;;;;;6148894;23;20029;-57
2022/07/03 06:54:55;;;;;;;3.80;1.98;;;;;;;;;;6148442;23;20030;-57
2022/07/03 06:57:22;;;;;;;6.80;1.73;;;;;;;;;;6149275;23;20068;-57
2022/07/03 06:59:49;;;;;;;4.45;1.73;;;;;;;;;;6149300;23;20026;-57
2022/07/03 07:02:17;;;;;;;5.57;1.92;;;;;;;;;;6150426;23;20040;-55
2022/07/03 07:04:44;;;;;;;7.60;2.20;;;;;;;;;;6150139;23;20289;-57
2022/07/03 07:07:11;;;;;;;3.40;1.80;;;;;;;;;;6149493;23;20029;-53
2022/07/03 07:09:38;;;;;;;3.38;1.52;;;;;;;;;;6151357;23;20021;-56
2022/07/03 07:12:06;;;;;;;;;;;;;;;;;;6151374;23;20022;-57
2022/07/03 07:14:33;;;;;;;2.75;1.65;;;;;;;;;;6150900;23;19921;-56
2022/07/03 07:17:00;;;;;;;4.55;2.00;;;;;;;;;;6149777;23;20053;-56
2022/07/03 07:19:28;;;;;;;8.05;2.55;;;;;;;;;;6150294;23;20076;-57
2022/07/03 07:21:55;;;;;;;3.28;1.80;;;;;;;;;;6150352;23;20029;-57
2022/07/03 07:24:22;;;;;;;3.08;1.60;;;;;;;;;;6150826;23;20400;-56
2022/07/03 07:26:50;;;;;;;4.22;1.88;;;;;;;;;;6150225;23;20332;-52
2022/07/03 07:29:17;;;;;;;6.25;2.10;;;;;;;;;;6149972;23;20026;-53
2022/07/03 07:31:44;;;;;;;6.22;2.17;;;;;;;;;;6150692;23;20044;-53
2022/07/03 07:34:11;;;;;;;8.20;2.28;;;;;;;;;;6150214;23;20061;-52
2022/07/03 07:36:39;;;;;;;4.40;2.58;;;;;;;;;;6148426;23;20022;-50
2022/07/03 07:39:06;;;;;;;6.80;2.90;;;;;;;;;;6148661;23;20359;-52
2022/07/03 07:41:33;;;;;;;6.93;2.50;;;;;;;;;;6149505;23;20033;-51
2022/07/03 07:44:01;;;;;;;4.85;2.30;;;;;;;;;;6149484;23;20072;-59
2022/07/03 07:46:29;;;;;;;3.72;2.47;;;;;;;;;;6149440;23;20076;-53
2022/07/03 07:48:56;;;;;;;5.18;2.15;;;;;;;;;;6151240;23;20084;-45
2022/07/03 07:51:24;;;;;;;6.05;2.55;;;;;;;;;;6149805;23;20029;-50
2022/07/03 07:53:52;;;;;;;7.57;2.40;;;;;;;;;;6150736;23;20044;-52
2022/07/03 07:56:19;;;;;;;4.30;1.95;;;;;;;;;;6150399;23;20482;-46
2022/07/03 07:58:46;;;;;;;5.07;2.40;;;;;;;;;;6150973;23;20021;-45
2022/07/03 08:06:46;;;;;;;6.25;2.47;;;;;;;;;;6150967;23;20017;-49
2022/07/03 08:09:14;;;;;;;3.97;1.85;;;;;;;;;;6149948;23;20033;-49
2022/07/03 08:11:41;;;;;;;3.60;2.05;;;;;;;;;;6150937;23;20375;-47
2022/07/03 08:14:09;;;;;;;3.20;1.95;;;;;;;;;;6150056;23;20084;-49
2022/07/03 08:16:40;;;;;;;5.35;2.00;;;;;;;;;;6151566;23;20028;-50
2022/07/03 08:19:08;;;;;;;4.60;1.88;;;;;;;;;;6150829;23;20036;-52
2022/07/03 08:21:36;;;;;;;4.88;2.50;;;;;;;;;;6151239;23;20073;-50
2022/07/03 08:24:03;;;;;;;;;;;;;;;;;;6152459;23;20029;-58
2022/07/03 08:26:30;;;;;;;5.93;2.08;;;;;;;;;;6150748;23;19920;-59
2022/07/03 08:28:58;;;;;;;4.57;2.60;;;;;;;;;;6152410;23;20026;-58
2022/07/03 08:31:25;;;;;;;4.45;2.13;;;;;;;;;;6152075;23;20026;-58
2022/07/03 08:33:52;;;;;;;6.70;2.47;;;;;;;;;;6151522;23;20417;-58
2022/07/03 08:36:19;;;;;;;6.22;2.60;;;;;;;;;;6150634;23;20025;-57
2022/07/03 08:38:47;;;;;;;5.00;2.50;;;;;;;;;;6151191;23;20021;-58
2022/07/03 08:41:15;;;;;;;7.10;2.63;;;;;;;;;;6151448;23;20489;-59
2022/07/03 08:43:42;;;;;;;6.03;2.20;;;;;;;;;;6152159;23;20048;-47
2022/07/03 08:46:11;;;;;;;5.68;2.65;;;;;;;;;;6150673;23;20025;-55
2022/07/03 08:48:41;;;;;;;7.18;2.75;;;;;;;;;;6149151;23;20471;-51
2022/07/03 08:51:08;;;;;;;8.95;2.65;;;;;;;;;;6150984;23;20084;-53
2022/07/03 08:53:38;;;;;;;4.90;2.80;;;;;;;;;;6149843;23;20104;-51
2022/07/03 08:56:05;;;;;;;4.97;2.60;;;;;;;;;;6149795;23;20053;-55
2022/07/03 08:58:32;;;;;;;6.40;2.80;;;;;;;;;;6150128;23;20350;-49
2022/07/03 09:01:00;;;;;;;8.85;3.03;;;;;;;;;;6151036;23;20022;-53
2022/07/03 09:03:28;;;;;;;7.70;2.97;;;;;;;;;;6123919;23;20029;-51
2022/07/03 09:05:57;;;;;;;6.60;2.65;;;;;;;;;;6150665;23;20057;-53
2022/07/03 09:08:28;;;;;;;6.68;2.58;;;;;;;;;;6124618;23;20025;-54
2022/07/03 09:10:55;;;;;;;6.75;2.55;;;;;;;;;;6149325;23;20026;-47
2022/07/03 09:13:22;;;;;;;11.35;3.22;;;;;;;;;;6149706;23;20537;-52
2022/07/03 09:15:50;;;;;;;;;;;;;;;;;;6150628;23;20021;-53
2022/07/03 09:18:17;;;;;;;5.65;2.67;;;;;;;;;;6150441;23;19924;-53
2022/07/03 09:20:44;;;;;;;4.72;3.20;;;;;;;;;;6149969;23;20023;-59
2022/07/03 09:23:13;;;;;;;6.60;2.90;;;;;;;;;;6148773;23;20034;-50
2022/07/03 09:25:52;;;;;;;7.68;3.30;;;;;;;;;;6150088;23;20026;-51
2022/07/03 09:28:20;;;;;;;7.18;3.00;;;;;;;;;;6149158;23;20542;-55
2022/07/03 09:30:58;;;;;;;9.55;3.40;;;;;;;;;;6150930;23;20022;-54
2022/07/03 09:33:25;;;;;;;6.78;3.53;;;;;;;;;;6150536;23;20037;-56
2022/07/03 09:35:56;;;;;;;5.53;3.53;;;;;;;;;;6150987;23;20463;-52
2022/07/03 09:38:23;;;;;;;7.25;3.58;;;;;;;;;;6149929;23;20032;-59
2022/07/03 09:40:52;;;;;;;6.93;3.08;;;;;;;;;;6151687;23;20475;-53
2022/07/03 09:43:26;;;;;;;6.65;3.72;;;;;;;;;;6150881;23;20021;-62
2022/07/03 09:45:56;;;;;;;7.38;3.50;;;;;;;;;;6150592;23;20482;-62
2022/07/03 09:48:27;;;;;;;7.80;3.60;;;;;;;;;;6149636;23;20582;-62
2022/07/03 09:51:08;;;;;;;7.97;3.47;;;;;;;;;;6151342;23;20021;-63
2022/07/03 09:53:46;;;;;;;7.43;3.78;;;;;;;;;;6151321;23;20018;-63
2022/07/03 09:56:20;;;;;;;6.70;3.70;;;;;;;;;;6150084;23;20482;-63
2022/07/03 09:58:59;;;;;;;6.78;3.90;;;;;;;;;;6150575;23;20104;-60
2022/07/03 10:01:26;;;;;;;5.55;3.50;;;;;;;;;;6151582;23;20056;-59
2022/07/03 10:03:55;;;;;;;6.25;3.63;;;;;;;;;;6150302;23;20056;-59
2022/07/03 10:06:22;;;;;;;9.48;3.30;;;;;;;;;;6151375;23;20137;-59
2022/07/03 10:08:50;;;;;;;5.20;3.72;;;;;;;;;;6149524;23;20064;-58
2022/07/03 10:11:17;;;;;;;6.05;3.92;;;;;;;;;;6125224;23;20530;-58
2022/07/03 10:13:45;;;;;;;6.47;3.88;;;;;;;;;;6149645;23;20460;-59
2022/07/03 10:16:12;;;;;;;;;;;;;;;;;;6151753;23;20029;-58
2022/07/03 10:18:40;;;;;;;5.20;3.30;;;;;;;;;;6148435;23;19916;-48
2022/07/03 10:21:07;;;;;;;5.25;3.20;;;;;;;;;;6149169;23;20033;-59
2022/07/03 10:23:35;;;;;;;10.10;4.15;;;;;;;;;;6148246;23;20025;-60
2022/07/03 10:26:02;;;;;;;8.05;3.67;;;;;;;;;;6149924;23;20048;-60
2022/07/03 10:28:31;;;;;;;12.00;3.67;;;;;;;;;;6148673;23;20491;-59
2022/07/03 10:30:59;;;;;;;7.85;3.50;;;;;;;;;;6149445;23;20025;-60
2022/07/03 10:33:27;;;;;;;6.53;3.85;;;;;;;;;;6149595;23;20044;-60
2022/07/03 10:35:56;;;;;;;6.15;3.83;;;;;;;;;;6149251;23;20025;-48
2022/07/03 10:38:39;;;;;;;5.88;3.45;;;;;;;;;;6148846;23;20061;-48
2022/07/03 10:46:47;;;;;;;6.90;3.40;;;;;;;;;;6149683;23;20092;-47
2022/07/03 10:49:15;;;;;;;5.22;3.15;;;;;;;;;;6149522;23;20056;-50
2022/07/03 10:51:42;;;;;;;6.95;3.53;;;;;;;;;;6149827;23;20463;-53
2022/07/03 10:54:38;;;;;;;5.28;3.53;;;;;;;;;;6147451;23;20057;-50
2022/07/03 10:57:10;;;;;;;9.50;3.50;;;;;;;;;;6147484;23;20018;-55
2022/07/03 10:59:40;;;;;;;5.35;3.40;;;;;;;;;;6147289;23;20022;-49
2022/07/03 11:02:26;;;;;;;11.07;4.20;;;;;;;;;;6148981;23;20455;-51
2022/07/03 11:04:58;;;;;;;12.05;3.97;;;;;;;;;;6150099;23;20064;-51
2022/07/03 11:07:25;;;;;;;8.20;3.67;;;;;;;;;;6150214;23;20483;-54
2022/07/03 11:09:53;;;;;;;;;;;;;;;;;;6150826;23;20029;-50
2022/07/03 11:12:40;;;;;;;8.63;4.00;;;;;;;;;;6150666;23;19944;-51
2022/07/03 11:15:26;;;;;;;6.78;3.85;;;;;;;;;;6149006;23;20033;-53
2022/07/03 11:18:08;;;;;;;10.27;4.88;;;;;;;;;;6148403;23;20056;-50
2022/07/03 11:20:41;;;;;;;5.80;4.00;;;;;;;;;;6149513;23;20475;-54
2022/07/03 11:23:24;;;;;;;6.35;3.83;;;;;;;;;;6149362;23;20025;-52
2022/07/03 11:25:51;;;;;;;7.50;4.03;;;;;;;;;;6151623;23;20029;-51
2022/07/03 11:28:18;;;;;;;;;;;;;;;;;;6149284;23;20084;-54
2022/07/03 11:31:13;;;;;;;6.72;3.50;;;;;;;;;;6152606;23;19920;-56
2022/07/03 11:33:44;;;;;;;8.68;3.95;;;;;;;;;;6151048;23;20364;-63
2022/07/03 11:36:25;;;;;;;7.25;3.88;;;;;;;;;;6151142;23;20029;-59
2022/07/03 11:38:55;;;;;;;7.18;4.45;;;;;;;;;;6150934;23;20032;-59
2022/07/03 11:41:23;;;;;;;10.68;4.63;;;;;;;;;;6152977;23;20030;-59
2022/07/03 11:44:03;;;;;;;4.90;3.97;;;;;;;;;;6151762;23;20069;-59
2022/07/03 11:46:35;;;;;;;5.85;4.10;;;;;;;;;;6150305;23;20080;-59
2022/07/03 11:49:16;;;;;;;10.93;4.40;;;;;;;;;;6148102;23;20526;-59
2022/07/03 11:51:44;;;;;;;5.80;4.20;;;;;;;;;;6151707;23;20076;-51
2022/07/03 11:54:12;;;;;;;7.63;3.65;;;;;;;;;;6151011;23;20025;-58
2022/07/03 11:56:39;;;;;;;5.25;3.85;;;;;;;;;;6152708;23;20246;-61
2022/07/03 11:59:06;;;;;;;8.00;3.80;;;;;;;;;;6151160;23;20515;-62
2022/07/03 12:01:35;;;;;;;7.65;4.10;;;;;;;;;;6152349;23;20021;-60
2022/07/03 12:04:03;;;;;;;6.57;4.15;;;;;;;;;;6148981;23;20022;-60
2022/07/03 12:06:51;;;;;;;6.90;3.47;;;;;;;;;;6150380;23;20030;-59
2022/07/03 12:09:22;;;;;;;4.68;3.58;;;;;;;;;;6137484;23;20073;-62
2022/07/03 12:12:02;;;;;;;5.88;3.60;;;;;;;;;;6119134;23;20030;-61
2022/07/03 12:14:38;;;;;;;7.25;3.88;;;;;;;;;;6117821;23;20030;-62
2022/07/03 12:17:07;;;;;;;4.03;3.55;;;;;;;;;;6119201;23;20101;-61
2022/07/03 12:19:35;;;;;;;7.18;3.55;;;;;;;;;;6119241;23;20022;-62
2022/07/03 12:22:03;;;;;;;8.73;4.05;;;;;;;;;;6120307;23;20121;-62
2022/07/03 12:24:31;;;;;;;5.57;4.20;;;;;;;;;;6118446;23;20442;-67
2022/07/03 12:27:05;;;;;;;6.45;3.80;;;;;;;;;;6120381;23;20041;-60
2022/07/03 12:29:32;;;;;;;;;;;;;;;;;;6120648;23;20034;-60
2022/07/03 12:31:59;;;;;;;9.10;3.75;;;;;;;;;;6119617;23;19917;-60
2022/07/03 12:34:26;;;;;;;5.55;3.72;;;;;;;;;;6120849;23;20026;-60
2022/07/03 12:36:57;;;;;;;5.82;3.60;;;;;;;;;;6120157;23;20021;-60
2022/07/03 12:39:41;;;;;;;6.22;3.25;;;;;;;;;;6119886;23;20583;-60
2022/07/03 12:42:18;;;;;;;6.40;3.28;;;;;;;;;;6120140;23;20026;-61
2022/07/03 12:44:55;;;;;;;4.87;3.20;;;;;;;;;;6118718;23;20033;-72
2022/07/03 12:47:23;;;;;;;7.07;2.95;;;;;;;;;;6119442;23;20026;-60
2022/07/03 12:50:09;;;;;;;3.80;3.10;;;;;;;;;;6119385;23;20030;-60
2022/07/03 12:52:57;;;;;;;6.78;3.00;;;;;;;;;;6120414;23;20440;-60
2022/07/03 12:55:28;;;;;;;6.88;2.85;;;;;;;;;;6120175;23;20080;-59
2022/07/03 13:01:24;;;;;;;5.80;2.80;;;;;;;;;;6120261;23;20089;-67
2022/07/03 13:03:51;;;;;;;8.70;2.90;;;;;;;;;;6119926;23;20022;-59
2022/07/03 13:06:20;;;;;;;4.65;2.67;;;;;;;;;;6120781;23;20077;-60
2022/07/03 13:08:51;;;;;;;6.63;3.05;;;;;;;;;;6116071;23;20026;-58
2022/07/03 13:11:45;;;;;;;5.80;2.60;;;;;;;;;;6090822;23;20037;-58
2022/07/03 13:14:16;;;;;;;6.40;2.53;;;;;;;;;;6088838;23;20352;-60
2022/07/03 13:16:44;;;;;;;3.85;2.83;;;;;;;;;;6091909;23;20030;-60
2022/07/03 13:19:13;;;;;;;6.40;2.90;;;;;;;;;;6089718;23;20031;-66
2022/07/03 13:21:42;;;;;;;4.30;2.58;;;;;;;;;;6090721;23;20054;-60
2022/07/03 13:24:11;;;;;;;7.97;2.85;;;;;;;;;;6089919;23;20031;-59
2022/07/03 13:26:39;;;;;;;4.72;2.80;;;;;;;;;;6090883;23;20030;-59
2022/07/03 13:29:06;;;;;;;;;;;;;;;;;;6090509;23;20050;-59
2022/07/03 13:31:34;;;;;;;4.95;2.70;;;;;;;;;;6089364;23;19924;-57
2022/07/03 13:34:01;;;;;;;5.55;3.22;;;;;;;;;;6090632;23;20023;-59
2022/07/03 13:36:30;;;;;;;5.18;2.47;;;;;;;;;;6091075;23;20488;-57
2022/07/03 13:38:58;;;;;;;4.10;2.55;;;;;;;;;;6090184;23;20022;-54
2022/07/03 13:41:25;;;;;;;5.30;2.28;;;;;;;;;;6090358;23;20030;-66
2022/07/03 13:43:53;;;;;;;5.95;2.60;;;;;;;;;;6090008;23;20030;-66
2022/07/03 13:46:21;;;;;;;3.85;2.20;;;;;;;;;;6089435;23;20411;-66
2022/07/03 13:48:49;;;;;;;6.25;2.65;;;;;;;;;;6089276;23;20555;-65
2022/07/03 13:51:16;;;;;;;;;;;;;;;;;;6091834;23;20033;-65
2022/07/03 13:53:45;;;;;;;3.55;2.20;;;;;;;;;;6089182;23;19932;-66
2022/07/03 13:56:14;;;;;;;3.85;2.10;;;;;;;;;;6090988;23;20033;-61
2022/07/03 13:59:01;;;;;;;3.92;1.80;;;;;;;;;;6090738;23;20054;-65
2022/07/03 14:01:29;;;;;;;3.83;2.00;;;;;;;;;;6092905;23;20034;-65
2022/07/03 14:03:56;;;;;;;;;;;;;;;;;;6089878;23;20070;-62
2022/07/03 14:06:23;;;;;;;5.55;2.33;;;;;;;;;;6087234;23;20347;-63
2022/07/03 14:08:50;;;;;;;;;;;;;;;;;;6087101;23;20330;-62
2022/07/03 14:11:18;;;;;;;8.68;2.30;;;;;;;;;;6089793;23;19968;-63
2022/07/03 14:13:45;;;;;;;9.15;2.50;;;;;;;;;;6090930;23;20041;-63
2022/07/03 14:16:12;;;;;;;;;;;;;;;;;;6091384;23;20026;-57
2022/07/03 14:18:40;;;;;;;5.50;2.25;;;;;;;;;;6086841;23;19921;-63
2022/07/03 14:21:07;;;;;;;3.67;2.22;;;;;;;;;;6086141;23;20026;-63
2022/07/03 14:23:34;;;;;;;;;;;;;;;;;;6091402;23;20056;-62
2022/07/03 14:26:01;;;;;;;3.28;1.98;;;;;;;;;;6089420;23;19968;-63
2022/07/03 14:33:51;;;;;;;2.95;2.03;;;;;;;;;;6089587;23;20029;-50
2022/07/03 14:36:19;;;;;;;4.50;2.10;;;;;;;;;;6090439;23;20030;-63
2022/07/03 14:39:06;;;;;;;2.63;1.85;;;;;;;;;;6087428;23;20113;-63
2022/07/03 14:41:33;;;;;;;3.47;2.10;;;;;;;;;;6089552;23;20030;-63
2022/07/03 14:44:00;;;;;;;3.05;2.00;;;;;;;;;;6088100;23;20468;-64
2022/07/03 14:46:27;;;;;;;4.68;1.98;;;;;;;;;;6089316;23;20030;-64
2022/07/03 14:48:55;;;;;;;;;;;;;;;;;;6090388;23;20420;-64
2022/07/03 14:51:22;;;;;;;3.95;1.88;;;;;;;;;;6090248;23;19921;-58
2022/07/03 14:53:49;;;;;;;2.72;1.80;;;;;;;;;;6089956;23;20040;-58
2022/07/03 14:56:16;;;;;;;;;;;;;;;;;;6087471;23;20061;-59
2022/07/03 14:58:44;;;;;;;2.05;1.60;;;;;;;;;;6087153;23;19920;-60
2022/07/03 15:01:12;;;;;;;2.20;1.63;;;;;;;;;;6086573;23;20030;-60
2022/07/03 15:03:45;;;;;;;3.92;2.10;;;;;;;;;;6090366;23;20027;-60
2022/07/03 15:06:13;;;;;;;4.95;1.80;;;;;;;;;;6088785;23;20058;-60
2022/07/03 15:08:47;;;;;;;3.75;1.65;;;;;;;;;;6089241;23;20073;-60
2022/07/03 15:14:04;;;;;;;3.42;1.85;;;;;;;;;;6087831;23;20396;-66
2022/07/03 15:16:32;;;;;;;3.92;1.88;;;;;;;;;;6088139;23;20026;-66
2022/07/03 15:19:00;;;;;;;6.28;2.00;;;;;;;;;;6085198;23;20033;-66
2022/07/03 15:21:29;;;;;;;2.17;1.63;;;;;;;;;;6086982;23;20074;-65
2022/07/03 15:24:06;;;;;;;3.92;1.35;;;;;;;;;;6086545;23;20094;-64
2022/07/03 15:26:34;;;;;;;4.40;1.80;;;;;;;;;;6085441;23;20081;-63
2022/07/03 15:29:02;;;;;;;3.35;1.52;;;;;;;;;;6085213;23;20026;-58